SBOSBO BER / EDDB
Speedbird OnlineSpeedbird Online BER / EDDB

Berlin Brandenburg Airport
21:06 13.7°C

Location Berlin, Germany
Latitude: 52.380001
Longitude: 13.5225
Web Airport Website | Wikipedia
Altitude 48 Meter / 157 Feet
Distance 922 KM / 573 Miles
from London.
Time Zone UTC +2 hours (Europe/Berlin)
Codes IATA: BER
ICAO: EDDB
Currency £1 equals EUR 1.12
Runways
RunwayLength (m)Surface
07L3600ASPH
07R4000concrete
25L4000concrete
25R3600ASPH
Radio
TypeDescriptionFrequency
Live ATC
METAR EDDB 241850Z AUTO 03007KT CAVOK 14/10 Q1013 NOSIG
TAF TAF EDDB 241700Z 2418/2518 05004KT CAVOK BECMG 2512/2515 27005KT
Weather As Of 24 Sep 2022 21:06
Description Light rain
Wind 13 km/h from North-East (30°)
Cloud Cover 0%
Precipitation Rain: none, Snow: none
Sunrise 06:54
Sunset 19:01
Lounges Lounge Tempelhof , Terminal 1
Rotations During the last 90 days there were
265 flights from LHR
201 flights from LCY
65 flights from LGW
277 flights to LHR
195 flights to LCY
63 flights to LGW


© 2017-2022 Speedbird Online